Trafford, AL (35172)

4:31 AM CDT en Noviembre 01, 2014 (GMT -0500)
Doss Ferry / NJMS | Change Station
CLOSE
Current Station
Estación meteorológica personal
Location: Kimberly, AL
Altura: 453 ft
Estaciones meteorológicas cercanas
Aviso en curso: Freeze Warning

Alt 453 ft 33.78 °N, 86.80 °W | Updated 55 seconds ago

Despejado
Despejado
36.7 ° F
Sensación térmica 37 ° F
N
1.1
Viento Variable Viento desde OSO
Gusts 5.0 mph

Hoy
Alta -- | Baja -- ° F
--% Posibilidad de precipitaciones
Ayer
Alta -- | Baja -- ° F
Precip. -- pul
7:06 AM 5:54 PM
Gibosa creciente, 64% visible
Presión 30.15 pul
Visibilidad 10.0 Millas
Nubes Despejado
Vientos helados 37 ° F
Punto de rocío 29 ° F
Humedad 72%
Precipitaciones 0.00 pul
Espesor de la nieve No disponible.
UV 0 de una escala de 12
Polen 1.90 de una escala de 12
Calidad del aire No disponible.
Flu Activity No disponible.
METAR KBHM 010853Z 31012G19KT 10SM CLR 02/M04 A3015 RMK AO2 SLP208 T00221039 56005

More Conditions Fewer Conditions

Presión 30.15 pul
Visibilidad 10.0 Millas
Nubes Despejado
Vientos helados 37 ° F
Punto de rocío 29 ° F
Humedad 72%
Precipitaciones 0.00 pul
Espesor de la nieve No disponible.
UV 0 de una escala de 12
Polen 1.90 de una escala de 12
Calidad del aire No disponible.
Flu Activity No disponible.
METAR KBHM 010853Z 31012G19KT 10SM CLR 02/M04 A3015 RMK AO2 SLP208 T00221039 56005

More Conditions Fewer Conditions

10-Day Weather Forecast

Almanac

Astronomía

Nov. 01, 2014 Salida Puesta
Hora real
Crepúsculo civil
Crepúsculo náutico
Crepúsculo astronómico
Luna
Horas de luz
Horas de luz
Tomorrow will be .
, % of the Moon is Illuminated

Extremos de hoy

Máximos del estado Bajos del estado

Community

WunderPhotos

Upload Photos

1,766,872 ¡fotos cargadas!

WunderBlogs® & News

Nearby

Calidad del aire

  Calidad del aire Índice AQ Contaminante
Not available.

Grosos de nieve

Estación Profundido Altura

Actividad de terremotos

Ciudad Distance Mag. Tiempo y dato
Magnitud mínima muestra es 2,5.

Temperaturas de aguas costeras

Lugar Temperatura

Estaciones meteorológicas cercanas